Time;durP1;ratioP1;P1;durP2;ratioP2;P2;SDS_P1;SDS_P2;PMS_P1;PMS_P2;Temp;Humidity;BMP_temperature;BMP_pressure;BME280_temperature;BME280_humidity;BME280_pressure;Samples;Min_cycle;Max_cycle;Signal;HPM_P1;HPM_P2
2023/08/06 00:00:37;;;;;;;;;;;;;;;14.54;100.00;100393.84;5059904;28;19920;-48
2023/08/06 00:03:02;;;;;;;;;;;;;;;14.53;100.00;100399.91;5059878;28;19924;-50
2023/08/06 00:05:28;;;;;;;;;;;;;;;14.54;100.00;100399.91;5059238;27;20004;-51
2023/08/06 00:07:53;;;;;;;;;;;;;;;14.54;100.00;100396.44;5043844;28;20314;-50
2023/08/06 00:10:18;;;;;;;;;;;;;;;14.54;100.00;100402.47;5060541;28;19935;-49
2023/08/06 00:12:44;;;;;;;;;;;;;;;14.53;100.00;100392.13;5061214;28;20342;-48
2023/08/06 00:15:10;;;;;;;;;;;;;;;14.54;100.00;100393.84;5059802;28;19960;-48
2023/08/06 00:17:35;;;;;;;;;;;;;;;14.54;100.00;100393.84;5058740;28;19932;-49
2023/08/06 00:20:05;;;;;;;;;;;;;;;14.52;100.00;100395.59;5060732;28;19931;-51
2023/08/06 00:22:34;;;;;;;;;;;;;;;14.54;100.00;100388.69;5058804;27;19918;-50
2023/08/06 00:25:00;;;;;;;;;;;;;;;14.53;100.00;100382.66;5056663;28;19921;-49
2023/08/06 00:27:25;;;;;;;;;;;;;;;14.53;100.00;100384.38;5057818;28;19924;-53
2023/08/06 00:29:50;;;;;;;;;;;;;;;14.54;100.00;100384.38;5058902;28;19924;-51
2023/08/06 00:32:15;;;;;;;;;;;;;;;14.53;100.00;100384.38;5054928;28;20056;-52
2023/08/06 00:34:41;;;;;;;;;;;;;;;14.55;100.00;100387.81;5060432;28;19929;-49
2023/08/06 00:37:06;;;;;;;;;;;;;;;14.56;100.00;100382.69;5042327;28;19925;-51
2023/08/06 00:39:31;;;;;;;;;;;;;;;14.57;100.00;100386.13;5059774;28;20387;-51
2023/08/06 00:41:58;;;;;;;;;;;;;;;14.58;100.00;100377.50;5059306;28;20413;-49
2023/08/06 00:44:23;;;;;;;;;;;;;;;14.57;100.00;100384.41;5060299;28;20002;-50
2023/08/06 00:46:48;;;;;;;;;;;;;;;14.58;100.00;100377.50;5059041;28;19920;-52
2023/08/06 00:49:14;;;;;;;;;;;;;;;14.57;100.00;100378.34;5059016;28;19972;-52
2023/08/06 00:51:39;;;;;;;;;;;;;;;14.57;100.00;100375.78;5057528;28;19928;-52
2023/08/06 00:54:04;;;;;;;;;;;;;;;14.57;100.00;100368.00;5061872;27;19928;-54
2023/08/06 00:56:30;;;;;;;;;;;;;;;14.57;100.00;100373.19;5053507;27;20033;-51
2023/08/06 00:58:55;;;;;;;;;;;;;;;14.56;100.00;100367.16;5057613;28;19935;-52
2023/08/06 01:01:20;;;;;;;;;;;;;;;14.56;100.00;100374.91;5059936;28;19940;-50
2023/08/06 01:03:46;;;;;;;;;;;;;;;14.55;100.00;100373.16;5037773;28;20379;-50
2023/08/06 01:06:11;;;;;;;;;;;;;;;14.54;100.00;100374.03;5053050;28;19928;-52
2023/08/06 01:08:54;;;;;;;;;;;;;;;14.55;100.00;100373.16;5059995;28;19924;-52
2023/08/06 01:11:28;;;;;;;;;;;;;;;14.55;100.00;100369.72;5062568;28;20011;-51
2023/08/06 01:14:08;;;;;;;;;;;;;;;14.56;100.00;100377.50;5043473;28;19921;-54
2023/08/06 01:16:33;;;;;;;;;;;;;;;14.58;100.00;100373.19;5061042;28;19920;-53
2023/08/06 01:18:58;;;;;;;;;;;;;;;14.57;100.00;100368.88;5064437;28;19947;-52
2023/08/06 01:21:23;;;;;;;;;;;;;;;14.57;100.00;100370.59;5060657;28;19935;-50
2023/08/06 01:23:49;;;;;;;;;;;;;;;14.59;100.00;100363.69;5063301;28;19927;-52
2023/08/06 01:26:17;;;;;;;;;;;;;;;14.59;100.00;100371.47;5062947;28;19963;-50
2023/08/06 01:28:48;;;;;;;;;;;;;;;14.61;100.00;100372.31;5062272;28;19995;-52
2023/08/06 01:31:22;;;;;;;;;;;;;;;14.60;100.00;100371.44;5057035;27;19942;-53
2023/08/06 01:33:48;;;;;;;;;;;;;;;14.61;100.00;100372.31;5064148;28;19920;-53
2023/08/06 01:36:15;;;;;;;;;;;;;;;14.62;100.00;100374.03;5061407;28;20388;-53
2023/08/06 01:38:40;;;;;;;;;;;;;;;14.62;100.00;100372.34;5060561;28;20114;-53
2023/08/06 01:41:05;;;;;;;;;;;;;;;14.61;100.00;100364.56;5061823;27;20015;-53
2023/08/06 01:43:31;;;;;;;;;;;;;;;14.61;100.00;100378.34;5059850;28;20012;-52
2023/08/06 01:45:56;;;;;;;;;;;;;;;14.61;100.00;100369.72;5059882;27;19932;-52
2023/08/06 01:48:21;;;;;;;;;;;;;;;14.59;100.00;100367.16;5062553;27;20293;-55
2023/08/06 01:50:46;;;;;;;;;;;;;;;14.57;100.00;100371.47;5061820;28;19924;-53
2023/08/06 01:53:12;;;;;;;;;;;;;;;14.56;100.00;100369.75;5056681;28;19925;-53
2023/08/06 01:55:37;;;;;;;;;;;;;;;14.56;100.00;100376.59;5062432;28;20290;-53
2023/08/06 01:58:02;;;;;;;;;;;;;;;14.57;100.00;100368.00;5060581;28;19936;-54
2023/08/06 02:00:28;;;;;;;;;;;;;;;14.57;100.00;100368.00;5061636;28;20374;-53
2023/08/06 02:02:54;;;;;;;;;;;;;;;14.57;100.00;100371.47;5060923;27;19973;-52
2023/08/06 02:05:19;;;;;;;;;;;;;;;14.58;100.00;100370.59;5054661;27;19959;-53
2023/08/06 02:07:44;;;;;;;;;;;;;;;14.57;100.00;100370.59;5059990;28;20386;-54
2023/08/06 02:10:09;;;;;;;;;;;;;;;14.57;100.00;100368.00;5060473;28;20300;-54
2023/08/06 02:12:35;;;;;;;;;;;;;;;14.57;100.00;100370.59;5059412;28;19929;-53
2023/08/06 02:15:00;;;;;;;;;;;;;;;14.57;100.00;100366.28;5060653;28;20035;-52
2023/08/06 02:17:25;;;;;;;;;;;;;;;14.56;100.00;100366.25;5062720;28;19963;-53
2023/08/06 02:19:50;;;;;;;;;;;;;;;14.55;100.00;100378.34;5059620;27;19981;-54
2023/08/06 02:22:15;;;;;;;;;;;;;;;14.53;100.00;100367.13;5061999;28;19921;-53
2023/08/06 02:24:41;;;;;;;;;;;;;;;14.52;100.00;100372.28;5061064;28;19928;-53
2023/08/06 02:27:06;;;;;;;;;;;;;;;14.52;100.00;100367.13;5060965;28;19929;-53
2023/08/06 02:29:31;;;;;;;;;;;;;;;14.53;100.00;100371.44;5060880;28;19928;-53
2023/08/06 02:31:57;;;;;;;;;;;;;;;14.54;100.00;100367.97;5062648;27;19933;-52
2023/08/06 02:34:22;;;;;;;;;;;;;;;14.56;100.00;100374.03;5045066;28;20011;-54
2023/08/06 02:36:47;;;;;;;;;;;;;;;14.54;100.00;100363.66;5044829;28;19924;-53
2023/08/06 02:39:12;;;;;;;;;;;;;;;14.53;100.00;100364.53;5052954;27;20397;-53
2023/08/06 02:41:38;;;;;;;;;;;;;;;14.53;100.00;100363.66;5061402;28;19932;-53
2023/08/06 02:44:03;;;;;;;;;;;;;;;14.53;100.00;100364.53;5044234;28;19924;-53
2023/08/06 02:46:28;;;;;;;;;;;;;;;14.51;100.00;100357.63;5060467;28;20488;-52
2023/08/06 02:48:53;;;;;;;;;;;;;;;14.51;100.00;100363.66;5059920;27;19972;-53
2023/08/06 02:51:19;;;;;;;;;;;;;;;14.52;100.00;100357.63;5062362;28;19971;-52
2023/08/06 02:53:44;;;;;;;;;;;;;;;14.53;100.00;100358.50;5060837;28;19920;-53
2023/08/06 02:56:10;;;;;;;;;;;;;;;14.53;100.00;100350.72;5061977;28;19970;-53
2023/08/06 02:58:35;;;;;;;;;;;;;;;14.52;100.00;100351.59;5058898;28;20343;-54
2023/08/06 03:01:05;;;;;;;;;;;;;;;14.53;100.00;100354.19;5042764;28;19951;-52
2023/08/06 03:03:31;;;;;;;;;;;;;;;14.52;100.00;100349.00;5058550;28;19955;-54
2023/08/06 03:05:56;;;;;;;;;;;;;;;14.53;100.00;100353.31;5061282;28;19920;-53
2023/08/06 03:08:22;;;;;;;;;;;;;;;14.53;100.00;100348.16;5060959;27;19924;-53
2023/08/06 03:10:48;;;;;;;;;;;;;;;14.54;100.00;100355.03;5059329;27;19966;-53
2023/08/06 03:13:13;;;;;;;;;;;;;;;14.53;100.00;100356.78;5057300;27;19928;-52
2023/08/06 03:15:38;;;;;;;;;;;;;;;14.55;100.00;100361.94;5059760;28;19924;-53
2023/08/06 03:18:05;;;;;;;;;;;;;;;14.55;100.00;100356.78;5061328;28;19924;-52
2023/08/06 03:20:31;;;;;;;;;;;;;;;14.55;100.00;100362.81;5059514;28;20393;-52
2023/08/06 03:22:56;;;;;;;;;;;;;;;14.55;100.00;100356.78;5060726;28;19924;-52
2023/08/06 03:25:22;;;;;;;;;;;;;;;14.54;100.00;100352.47;5058121;28;19939;-52
2023/08/06 03:27:47;;;;;;;;;;;;;;;14.54;100.00;100353.31;5060882;28;19923;-52
2023/08/06 03:30:12;;;;;;;;;;;;;;;14.54;100.00;100361.09;5059444;28;20298;-52
2023/08/06 03:32:37;;;;;;;;;;;;;;;14.55;100.00;100359.34;5059001;27;20038;-53
2023/08/06 03:35:03;;;;;;;;;;;;;;;14.54;100.00;100357.63;5054081;28;19977;-53
2023/08/06 03:37:28;;;;;;;;;;;;;;;14.53;100.00;100358.50;5055597;28;20348;-52
2023/08/06 03:39:54;;;;;;;;;;;;;;;14.53;100.00;100356.78;5054711;27;19927;-53
2023/08/06 03:42:19;;;;;;;;;;;;;;;14.54;100.00;100360.22;5036529;28;19929;-52
2023/08/06 03:44:44;;;;;;;;;;;;;;;14.53;100.00;100359.34;5054957;28;20596;-52
2023/08/06 03:47:09;;;;;;;;;;;;;;;14.53;100.00;100350.72;5045510;27;19947;-52
2023/08/06 03:49:35;;;;;;;;;;;;;;;14.53;100.00;100361.09;5056246;28;19921;-50
2023/08/06 03:52:00;;;;;;;;;;;;;;;14.53;100.00;100356.78;5051307;28;19970;-52
2023/08/06 03:54:25;;;;;;;;;;;;;;;14.50;100.00;100361.94;5049182;28;20420;-51
2023/08/06 03:56:50;;;;;;;;;;;;;;;14.49;100.00;100366.22;5052077;28;20294;-48
2023/08/06 03:59:16;;;;;;;;;;;;;;;14.49;100.00;100368.81;5050176;28;19963;-51
2023/08/06 04:01:41;;;;;;;;;;;;;;;14.47;100.00;100365.38;5051220;28;19921;-50
2023/08/06 04:04:06;;;;;;;;;;;;;;;14.49;100.00;100365.38;5051509;27;20287;-52
2023/08/06 04:06:31;;;;;;;;;;;;;;;14.48;100.00;100364.50;5051932;28;19920;-52
2023/08/06 04:08:57;;;;;;;;;;;;;;;14.49;100.00;100368.81;5051056;28;19977;-50
2023/08/06 04:11:22;;;;;;;;;;;;;;;14.48;100.00;100367.09;5050557;28;19925;-51
2023/08/06 04:13:47;;;;;;;;;;;;;;;14.48;100.00;100372.28;5049803;27;20362;-51
2023/08/06 04:16:14;;;;;;;;;;;;;;;14.48;100.00;100369.69;5051008;28;20264;-50
2023/08/06 04:18:39;;;;;;;;;;;;;;;14.49;100.00;100365.38;5049277;28;19925;-51
2023/08/06 04:21:05;;;;;;;;;;;;;;;14.52;100.00;100383.50;5044784;27;19936;-53
2023/08/06 04:23:30;;;;;;;;;;;;;;;14.53;100.00;100374.03;5051014;28;19932;-48
2023/08/06 04:25:58;;;;;;;;;;;;;;;14.53;100.00;100381.78;5049829;28;19935;-49
2023/08/06 04:28:24;;;;;;;;;;;;;;;14.53;100.00;100379.19;5046452;28;20014;-52
2023/08/06 04:30:49;;;;;;;;;;;;;;;14.53;100.00;100374.03;5052675;28;20362;-51
2023/08/06 04:33:14;;;;;;;;;;;;;;;14.53;100.00;100377.47;5058827;28;19927;-50
2023/08/06 04:35:40;;;;;;;;;;;;;;;14.54;100.00;100388.69;5055910;28;19921;-49
2023/08/06 04:38:05;;;;;;;;;;;;;;;14.55;100.00;100385.22;5058915;28;19920;-52
2023/08/06 04:40:32;;;;;;;;;;;;;;;14.57;100.00;100391.28;5058116;28;19929;-50
2023/08/06 04:42:57;;;;;;;;;;;;;;;14.57;100.00;100397.34;5043290;28;20006;-51
2023/08/06 04:45:24;;;;;;;;;;;;;;;14.58;100.00;100395.59;5062777;28;20024;-52
2023/08/06 04:47:49;;;;;;;;;;;;;;;14.60;100.00;100401.63;5063128;28;19932;-49
2023/08/06 04:50:14;;;;;;;;;;;;;;;14.58;100.00;100393.88;5042579;28;19931;-52
2023/08/06 04:52:40;;;;;;;;;;;;;;;14.60;100.00;100392.16;5065540;28;19931;-52
2023/08/06 04:55:06;;;;;;;;;;;;;;;14.63;100.00;100388.72;5054100;27;20417;-52
2023/08/06 04:57:31;;;;;;;;;;;;;;;14.68;100.00;100394.75;5064300;28;19924;-52
2023/08/06 04:59:56;;;;;;;;;;;;;;;14.74;100.00;100399.97;5059829;28;19939;-52
2023/08/06 05:02:22;;;;;;;;;;;;;;;14.75;100.00;100392.22;5064851;27;20080;-52
2023/08/06 05:04:47;;;;;;;;;;;;;;;14.80;100.00;100389.63;5061499;28;20036;-53
2023/08/06 05:07:12;;;;;;;;;;;;;;;14.81;100.00;100391.38;5061818;28;19931;-51
2023/08/06 05:09:37;;;;;;;;;;;;;;;14.83;100.00;100396.56;5044668;28;19931;-52
2023/08/06 05:12:03;;;;;;;;;;;;;;;14.85;100.00;100395.69;5060230;28;19928;-52
2023/08/06 05:14:29;;;;;;;;;;;;;;;14.89;100.00;100407.78;5059652;28;19952;-52
2023/08/06 05:16:54;;;;;;;;;;;;;;;14.91;100.00;100405.22;5061564;28;20410;-52
2023/08/06 05:19:19;;;;;;;;;;;;;;;14.91;100.00;100418.16;5062236;28;20306;-51
2023/08/06 05:21:45;;;;;;;;;;;;;;;14.93;100.00;100414.72;5063591;28;19929;-52
2023/08/06 05:24:10;;;;;;;;;;;;;;;14.92;100.00;100425.91;5063041;28;20052;-51
2023/08/06 05:26:35;;;;;;;;;;;;;;;14.90;100.00;100422.47;5058410;28;19964;-51
2023/08/06 05:29:00;;;;;;;;;;;;;;;14.90;100.00;100422.47;5058125;27;19975;-52
2023/08/06 05:31:26;;;;;;;;;;;;;;;14.92;100.00;100427.63;5061077;28;20041;-49
2023/08/06 05:33:51;;;;;;;;;;;;;;;14.93;100.00;100427.66;5059667;27;20073;-52
2023/08/06 05:36:17;;;;;;;;;;;;;;;14.96;100.00;100435.44;5055908;28;19972;-51
2023/08/06 05:38:43;;;;;;;;;;;;;;;14.97;100.00;100434.56;5056710;28;19978;-53
2023/08/06 05:41:08;;;;;;;;;;;;;;;14.99;100.00;100442.34;5058203;28;20387;-51
2023/08/06 05:43:33;;;;;;;;;;;;;;;15.03;100.00;100444.06;5061899;28;19952;-50
2023/08/06 05:45:58;;;;;;;;;;;;;;;15.08;100.00;100449.28;5057149;28;19929;-52
2023/08/06 05:48:24;;;;;;;;;;;;;;;15.09;100.00;100457.03;5063406;28;20409;-51
2023/08/06 05:50:50;;;;;;;;;;;;;;;15.12;100.00;100451.03;5061554;28;20019;-51
2023/08/06 05:53:15;;;;;;;;;;;;;;;15.12;100.00;100457.06;5061129;28;20007;-52
2023/08/06 05:55:40;;;;;;;;;;;;;;;15.13;100.00;100463.09;5058257;28;20439;-51
2023/08/06 05:58:06;;;;;;;;;;;;;;;15.16;100.00;100465.69;5061026;28;19924;-51
2023/08/06 06:00:31;;;;;;;;;;;;;;;15.19;100.00;100465.72;5063148;28;19931;-52
2023/08/06 06:02:56;;;;;;;;;;;;;;;15.22;100.00;100460.53;5053641;27;20010;-52
2023/08/06 06:05:21;;;;;;;;;;;;;;;15.25;100.00;100473.50;5059378;28;19927;-52
2023/08/06 06:07:47;;;;;;;;;;;;;;;15.27;100.00;100477.81;5063448;27;20015;-52
2023/08/06 06:10:12;;;;;;;;;;;;;;;15.29;100.00;100473.53;5040916;28;20426;-51
2023/08/06 06:12:40;;;;;;;;;;;;;;;15.30;100.00;100482.16;5061847;28;19924;-50
2023/08/06 06:15:05;;;;;;;;;;;;;;;15.35;100.00;100476.97;5057705;28;19935;-49
2023/08/06 06:17:31;;;;;;;;;;;;;;;15.35;100.00;100484.75;5056327;28;19928;-54
2023/08/06 06:19:56;;;;;;;;;;;;;;;15.35;100.00;100496.00;5058511;28;19932;-52
2023/08/06 06:22:21;;;;;;;;;;;;;;;15.34;100.00;100495.97;5061320;28;20003;-52
2023/08/06 06:24:46;;;;;;;;;;;;;;;15.35;100.00;100497.69;5059885;28;19924;-54
2023/08/06 06:27:12;;;;;;;;;;;;;;;15.37;100.00;100496.84;5059725;27;20216;-52
2023/08/06 06:29:37;;;;;;;;;;;;;;;15.40;100.00;100501.16;5063982;28;19929;-52
2023/08/06 06:32:02;;;;;;;;;;;;;;;15.39;100.00;100505.47;5065278;28;19936;-50
2023/08/06 06:34:27;;;;;;;;;;;;;;;15.36;100.00;100510.66;5064053;28;19981;-53
2023/08/06 06:36:53;;;;;;;;;;;;;;;15.40;100.00;100508.94;5051186;27;19928;-49
2023/08/06 06:39:18;;;;;;;;;;;;;;;15.43;100.00;100519.31;5060950;28;19936;-53
2023/08/06 06:41:44;;;;;;;;;;;;;;;15.44;100.00;100514.13;5062329;27;20367;-53
2023/08/06 06:44:09;;;;;;;;;;;;;;;15.46;100.00;100522.78;5060473;28;20023;-52
2023/08/06 06:46:34;;;;;;;;;;;;;;;15.45;100.00;100525.38;5061072;27;19925;-50
2023/08/06 06:49:00;;;;;;;;;;;;;;;15.44;100.00;100521.91;5060534;28;20733;-52
2023/08/06 06:51:25;;;;;;;;;;;;;;;15.47;100.00;100527.13;5042336;28;20340;-48
2023/08/06 06:53:50;;;;;;;;;;;;;;;15.46;100.00;100527.94;5062191;28;20011;-51
2023/08/06 06:56:15;;;;;;;;;;;;;;;15.47;100.00;100531.41;5062081;28;19955;-52
2023/08/06 06:58:40;;;;;;;;;;;;;;;15.48;100.00;100530.56;5062854;28;19929;-51
2023/08/06 07:01:06;;;;;;;;;;;;;;;15.48;100.00;100533.16;5058749;28;20322;-51
2023/08/06 07:03:31;;;;;;;;;;;;;;;15.45;100.00;100530.53;5059741;27;19971;-52
2023/08/06 07:05:58;;;;;;;;;;;;;;;15.48;100.00;100531.44;5049621;28;19967;-56
2023/08/06 07:08:23;;;;;;;;;;;;;;;15.50;100.00;100541.78;5049118;28;19964;-50
2023/08/06 07:10:48;;;;;;;;;;;;;;;15.52;100.00;100542.66;5047787;27;19979;-52
2023/08/06 07:13:14;;;;;;;;;;;;;;;15.50;100.00;100537.47;5051476;28;20181;-52
2023/08/06 07:15:39;;;;;;;;;;;;;;;15.47;100.00;100545.25;5051491;28;20378;-52
2023/08/06 07:18:04;;;;;;;;;;;;;;;15.45;100.00;100553.88;5050336;28;20730;-52
2023/08/06 07:20:31;;;;;;;;;;;;;;;15.38;100.00;100552.97;5033879;28;20023;-51
2023/08/06 07:22:57;;;;;;;;;;;;;;;15.22;100.00;100564.13;5049720;28;19928;-50
2023/08/06 07:25:22;;;;;;;;;;;;;;;15.04;100.00;100577.84;5047883;28;19929;-49
2023/08/06 07:27:47;;;;;;;;;;;;;;;14.79;100.00;100574.25;5033766;28;19925;-51
2023/08/06 07:30:12;;;;;;;;;;;;;;;14.58;100.00;100574.13;5051860;27;19924;-52
2023/08/06 07:32:38;;;;;;;;;;;;;;;14.45;100.00;100576.59;5047196;28;19986;-52
2023/08/06 07:35:03;;;;;;;;;;;;;;;14.34;100.00;100583.41;5050916;28;19921;-49
2023/08/06 07:37:29;;;;;;;;;;;;;;;14.11;100.00;100584.94;5050259;28;19928;-52
2023/08/06 07:39:57;;;;;;;;;;;;;;;13.89;100.00;100587.31;5031616;28;20295;-54
2023/08/06 07:42:22;;;;;;;;;;;;;;;13.66;100.00;100596.53;5050792;28;20434;-48
2023/08/06 07:44:54;;;;;;;;;;;;;;;13.51;100.00;100598.94;5046354;27;19977;-48
2023/08/06 07:47:20;;;;;;;;;;;;;;;13.41;100.00;100613.47;5060430;28;20452;-47
2023/08/06 07:49:45;;;;;;;;;;;;;;;13.43;100.00;100611.75;5060170;28;19920;-47
2023/08/06 07:52:11;;;;;;;;;;;;;;;13.30;100.00;100620.22;5057739;27;19936;-49
2023/08/06 07:54:36;;;;;;;;;;;;;;;13.32;100.00;100618.50;5064076;27;19924;-48
2023/08/06 07:57:01;;;;;;;;;;;;;;;13.20;100.00;100614.00;5056439;27;19924;-50
2023/08/06 07:59:26;;;;;;;;;;;;;;;13.20;100.00;100619.16;5035248;28;19921;-46
2023/08/06 08:01:52;;;;;;;;;;;;;;;13.19;100.00;100616.56;5055441;28;20409;-50
2023/08/06 08:04:17;;;;;;;;;;;;;;;13.19;100.00;100625.19;5051707;28;19921;-51
2023/08/06 08:06:42;;;;;;;;;;;;;;;13.19;100.00;100617.44;5053788;28;19921;-51
2023/08/06 08:09:08;;;;;;;;;;;;;;;13.21;100.00;100627.81;5054520;28;19943;-52
2023/08/06 08:11:33;;;;;;;;;;;;;;;13.19;100.00;100619.16;5038790;27;19956;-51
2023/08/06 08:13:58;;;;;;;;;;;;;;;13.25;100.00;100633.03;5053956;28;19921;-52
2023/08/06 08:16:23;;;;;;;;;;;;;;;13.20;100.00;100626.91;5054061;28;19925;-52
2023/08/06 08:18:48;;;;;;;;;;;;;;;13.20;100.00;100631.22;5045579;27;20604;-51
2023/08/06 08:21:14;;;;;;;;;;;;;;;13.20;100.00;100633.78;5052877;27;20293;-55
2023/08/06 08:23:39;;;;;;;;;;;;;;;13.23;100.00;100632.16;5059932;28;19927;-48
2023/08/06 08:26:04;;;;;;;;;;;;;;;13.25;100.00;100640.78;5063952;27;19921;-56
2023/08/06 08:28:30;;;;;;;;;;;;;;;13.28;100.00;100640.81;5058380;27;19917;-51
2023/08/06 08:30:55;;;;;;;;;;;;;;;13.29;100.00;100652.03;5057209;28;19920;-54
2023/08/06 08:33:21;;;;;;;;;;;;;;;13.30;100.00;100646.03;5056369;27;20382;-56
2023/08/06 08:35:47;;;;;;;;;;;;;;;13.30;100.00;100651.19;5059470;27;19916;-54
2023/08/06 08:38:12;;;;;;;;;;;;;;;13.30;100.00;100646.91;5060349;28;20053;-57
2023/08/06 08:40:43;;;;;;;;;;;;;;;13.32;100.00;100655.53;5044245;28;20401;-57
2023/08/06 08:43:09;;;;;;;;;;;;;;;13.32;100.00;100660.69;5054786;27;19924;-51
2023/08/06 08:45:35;;;;;;;;;;;;;;;13.35;100.00;100655.56;5051419;28;20346;-50
2023/08/06 08:48:00;;;;;;;;;;;;;;;13.40;100.00;100659.06;5058106;27;19924;-55
2023/08/06 08:50:26;;;;;;;;;;;;;;;13.41;100.00;100652.22;5063591;28;19925;-55
2023/08/06 08:52:51;;;;;;;;;;;;;;;13.44;100.00;100653.94;5060398;28;20300;-49
2023/08/06 08:55:17;;;;;;;;;;;;;;;13.43;100.00;100659.97;5059523;28;19924;-51
2023/08/06 08:57:43;;;;;;;;;;;;;;;13.44;100.00;100659.13;5053126;27;19932;-53
2023/08/06 09:00:09;;;;;;;;;;;;;;;13.48;100.00;100660.91;5054014;28;19932;-55
2023/08/06 09:02:36;;;;;;;;;;;;;;;13.54;100.00;100663.56;5059236;28;19917;-54
2023/08/06 09:05:03;;;;;;;;;;;;;;;13.52;100.00;100673.84;5061898;27;20014;-54
2023/08/06 09:07:31;;;;;;;;;;;;;;;13.53;100.00;100674.72;5059679;28;19952;-57
2023/08/06 09:09:57;;;;;;;;;;;;;;;13.52;100.00;100683.31;5056794;27;20571;-55
2023/08/06 09:12:23;;;;;;;;;;;;;;;13.54;100.00;100684.22;5048128;27;20413;-56
2023/08/06 09:14:48;;;;;;;;;;;;;;;13.55;100.00;100686.81;5050766;27;19920;-55
2023/08/06 09:17:13;;;;;;;;;;;;;;;13.53;100.00;100695.38;5052182;27;19920;-57
2023/08/06 09:19:45;;;;;;;;;;;;;;;13.52;100.00;100709.16;5050019;28;19933;-48
2023/08/06 09:22:13;;;;;;;;;;;;;;;13.49;100.00;100696.22;5052624;28;19928;-47
2023/08/06 09:24:39;;;;;;;;;;;;;;;13.50;100.00;100706.56;5055084;28;20005;-47
2023/08/06 09:27:04;;;;;;;;;;;;;;;13.54;100.00;100710.06;5052612;28;19920;-45
2023/08/06 09:29:30;;;;;;;;;;;;;;;13.54;100.00;100712.66;5053706;28;19935;-45
2023/08/06 09:31:56;;;;;;;;;;;;;;;13.54;100.00;100717.81;5052764;28;19935;-45
2023/08/06 09:34:22;;;;;;;;;;;;;;;13.60;100.00;100715.31;5053478;28;19916;-47
2023/08/06 09:36:51;;;;;;;;;;;;;;;13.61;100.00;100729.97;5056442;28;19937;-46
2023/08/06 09:39:17;;;;;;;;;;;;;;;13.63;100.00;100725.66;5059405;27;19959;-51
2023/08/06 09:41:42;;;;;;;;;;;;;;;13.62;100.00;100726.53;5061351;28;19928;-51
2023/08/06 09:44:18;;;;;;;;;;;;;;;13.63;100.00;100729.13;5060551;28;19921;-51
2023/08/06 09:46:46;;;;;;;;;;;;;;;13.68;100.00;100724.03;5061228;28;19931;-52
2023/08/06 09:49:12;;;;;;;;;;;;;;;13.66;100.00;100734.34;5057036;27;20348;-52
2023/08/06 09:51:39;;;;;;;;;;;;;;;13.70;100.00;100735.22;5050859;27;19921;-54
2023/08/06 09:54:05;;;;;;;;;;;;;;;13.74;100.00;100731.00;5057522;27;19936;-55
2023/08/06 09:56:37;;;;;;;;;;;;;;;13.78;100.00;100737.94;5067029;27;19935;-56
2023/08/06 09:59:04;;;;;;;;;;;;;;;13.85;100.00;100732.88;5043641;27;19933;-57
2023/08/06 10:01:29;;;;;;;;;;;;;;;13.87;100.00;100733.75;5061998;28;20010;-51
2023/08/06 10:03:56;;;;;;;;;;;;;;;13.87;100.00;100750.97;5060904;28;20023;-49
2023/08/06 10:06:22;;;;;;;;;;;;;;;13.90;100.00;100746.72;5060826;28;19925;-49
2023/08/06 10:08:48;;;;;;;;;;;;;;;13.91;100.00;100753.63;5061113;28;20378;-51
2023/08/06 10:11:14;;;;;;;;;;;;;;;13.93;100.00;100748.47;5058740;28;20072;-52
2023/08/06 10:13:39;;;;;;;;;;;;;;;13.95;100.00;100747.66;5058107;27;20022;-55
2023/08/06 10:16:05;;;;;;;;;;;;;;;13.99;100.00;100750.25;5058881;27;20055;-55
2023/08/06 10:18:30;;;;;;;;;;;;;;;13.97;100.00;100757.13;5059931;27;20086;-56
2023/08/06 10:20:56;;;;;;;;;;;;;;;13.94;100.00;100760.53;5055078;27;20057;-55
2023/08/06 10:23:32;;;;;;;;;;;;;;;13.92;100.00;100755.34;5061591;28;19921;-56
2023/08/06 10:25:59;;;;;;;;;;;;;;;14.00;100.00;100760.59;5072238;27;20477;-56
2023/08/06 10:28:33;;;;;;;;;;;;;;;13.97;100.00;100754.56;5065538;28;19950;-56
2023/08/06 10:30:59;;;;;;;;;;;;;;;14.05;100.00;100758.09;5065870;28;20362;-57
2023/08/06 10:33:24;;;;;;;;;;;;;;;14.00;100.00;100759.75;5062502;28;19929;-56
2023/08/06 10:35:50;;;;;;;;;;;;;;;14.02;100.00;100766.69;5063808;28;19928;-55
2023/08/06 10:38:22;;;;;;;;;;;;;;;14.08;100.00;100763.31;5062665;28;19925;-50
2023/08/06 10:40:48;;;;;;;;;;;;;;;14.12;100.00;100767.66;5058481;28;19925;-51
2023/08/06 10:43:25;;;;;;;;;;;;;;;14.11;100.00;100768.50;5065570;28;19924;-50
2023/08/06 10:45:51;;;;;;;;;;;;;;;14.13;100.00;100769.38;5058148;27;19974;-48
2023/08/06 10:48:28;;;;;;;;;;;;;;;14.14;100.00;100764.25;5047448;27;20371;-49
2023/08/06 10:50:54;;;;;;;;;;;;;;;14.12;100.00;100775.41;5043913;28;19965;-51
2023/08/06 10:53:21;;;;;;;;;;;;;;;14.10;100.00;100770.22;5065304;28;20024;-49
2023/08/06 10:55:46;;;;;;;;;;;;;;;14.09;100.00;100778.84;5047671;28;19941;-48
2023/08/06 10:58:14;;;;;;;;;;;;;;;14.06;100.00;100783.09;5061109;28;20142;-48
2023/08/06 11:00:39;;;;;;;;;;;;;;;14.11;100.00;100777.13;5062577;28;20020;-48
2023/08/06 11:03:05;;;;;;;;;;;;;;;14.07;100.00;100787.41;5065003;28;20019;-49
2023/08/06 11:05:30;;;;;;;;;;;;;;;14.01;100.00;100780.44;5065198;28;19925;-48
2023/08/06 11:07:55;;;;;;;;;;;;;;;13.97;100.00;100780.41;5063382;28;19920;-48
2023/08/06 11:10:21;;;;;;;;;;;;;;;13.92;100.00;100788.09;5062519;27;19928;-48
2023/08/06 11:12:46;;;;;;;;;;;;;;;13.79;100.00;100792.22;5064331;28;19923;-46
2023/08/06 11:15:11;;;;;;;;;;;;;;;13.71;100.00;100791.25;5062051;28;20268;-46
2023/08/06 11:17:37;;;;;;;;;;;;;;;13.61;100.00;100789.38;5062287;28;19920;-45
2023/08/06 11:20:05;;;;;;;;;;;;;;;13.57;100.00;100792.75;5059148;27;19932;-45
2023/08/06 11:22:30;;;;;;;;;;;;;;;13.54;100.00;100793.59;5058990;28;19917;-43
2023/08/06 11:24:56;;;;;;;;;;;;;;;13.48;100.00;100790.91;5063670;27;19929;-44
2023/08/06 11:27:21;;;;;;;;;;;;;;;13.49;100.00;100791.78;5061236;28;20044;-45
2023/08/06 11:29:47;;;;;;;;;;;;;;;13.53;100.00;100784.13;5059899;28;20334;-44
2023/08/06 11:32:12;;;;;;;;;;;;;;;13.53;100.00;100798.72;5060466;28;19928;-48
2023/08/06 11:34:38;;;;;;;;;;;;;;;13.61;100.00;100791.97;5060986;28;19920;-48
2023/08/06 11:37:06;;;;;;;;;;;;;;;13.69;100.00;100804.13;5060043;28;19920;-45
2023/08/06 11:39:33;;;;;;;;;;;;;;;13.72;100.00;100795.56;5056851;28;19931;-46
2023/08/06 11:42:00;;;;;;;;;;;;;;;13.80;100.00;100799.13;5055582;28;19949;-47
2023/08/06 11:44:25;;;;;;;;;;;;;;;13.90;100.00;100805.31;5058650;28;20041;-43
2023/08/06 11:46:55;;;;;;;;;;;;;;;13.96;100.00;100797.63;5057978;28;19970;-46
2023/08/06 11:49:41;;;;;;;;;;;;;;;14.02;100.00;100796.84;5056378;28;19916;-49
2023/08/06 11:52:09;;;;;;;;;;;;;;;14.12;100.00;100803.84;5059708;28;19974;-48
2023/08/06 11:54:36;;;;;;;;;;;;;;;14.19;100.00;100801.34;5050249;27;19925;-47
2023/08/06 11:57:02;;;;;;;;;;;;;;;14.30;100.00;100801.47;5054276;28;20366;-45
2023/08/06 11:59:27;;;;;;;;;;;;;;;14.38;100.00;100799.88;5060948;28;19932;-46
2023/08/06 12:01:53;;;;;;;;;;;;;;;14.47;100.00;100801.72;5057846;28;19931;-45
2023/08/06 12:04:18;;;;;;;;;;;;;;;14.59;100.00;100809.63;5059215;28;19959;-48
2023/08/06 12:06:43;;;;;;;;;;;;;;;14.66;100.00;100808.81;5036427;28;19929;-45
2023/08/06 12:09:10;;;;;;;;;;;;;;;14.69;100.00;100810.59;5052494;28;19948;-48
2023/08/06 12:11:35;;;;;;;;;;;;;;;14.81;100.00;100813.31;5052774;28;19961;-50
2023/08/06 12:14:00;;;;;;;;;;;;;;;14.87;100.00;100812.50;5050095;28;19920;-47
2023/08/06 12:16:25;;;;;;;;;;;;;;;14.94;100.00;100817.75;5048336;28;19947;-48
2023/08/06 12:18:51;;;;;;;;;;;;;;;15.08;100.00;100817.00;5055877;28;19944;-45
2023/08/06 12:21:16;;;;;;;;;;;;;;;15.15;100.00;100818.78;5061969;28;19920;-46